Malmo

Airport
ICAO code: 
ESMS
Summary
ICAO Region: 
EUR
Territory: 
Location: 
Malmo,
Elevation: 
236 ft
Coordinates: 
Aerial View: 
55° 32' 10.699" N, 13° 22' 34.312" E
Metar
Observation
ESMS 212320Z 32005KT CAVOK M01/M03 Q1021
Station
Malmo / Sturup
Date/Time
2022-01-21 23:20:00
Wind direction
320°
Wind speed
05 kts
Lowest cloud amount
clouds and visibility OK
Temperature
-1°C
Dew point
-3°C
Humidity
86%
QNH
1021 hPa
Weather condition
n/a

Description

International airport serving Malmo, southwest Sweden.

Climatology

Temperate Marine climate/Oceanic climate (Köppen climate classification Cfb). Moderately cool summer and comparatively warm winter.

Runways

Designator Length Width Surface Rops
11/29 797 23 ASP Yes/Yes
17/35 2800 45 ASP Yes/Yes
Airport map: 
Aerial View: 

Accidents and Serious Incidents at or in the vicinity of ESMS

SKYbrary Partners:

Safety knowledge contributed by: